sensor_id;sensor_type;location;lat;lon;timestamp;temperature;humidity
3281;DHT22;1652;51.318;6.202;2023-04-06T00:01:02;1.60;99.90
3281;DHT22;1652;51.318;6.202;2023-04-06T00:03:29;1.60;99.90
3281;DHT22;1652;51.318;6.202;2023-04-06T00:05:57;1.50;99.90
3281;DHT22;1652;51.318;6.202;2023-04-06T00:08:24;1.50;99.90
3281;DHT22;1652;51.318;6.202;2023-04-06T00:10:52;1.50;99.90
3281;DHT22;1652;51.318;6.202;2023-04-06T00:13:19;1.60;99.90
3281;DHT22;1652;51.318;6.202;2023-04-06T00:15:46;1.70;99.90
3281;DHT22;1652;51.318;6.202;2023-04-06T00:18:13;1.70;99.90
3281;DHT22;1652;51.318;6.202;2023-04-06T00:20:40;1.80;99.90
3281;DHT22;1652;51.318;6.202;2023-04-06T00:23:07;1.80;99.90
3281;DHT22;1652;51.318;6.202;2023-04-06T00:25:34;1.80;99.90
3281;DHT22;1652;51.318;6.202;2023-04-06T00:28:01;1.70;99.90
3281;DHT22;1652;51.318;6.202;2023-04-06T00:30:28;1.70;99.90
3281;DHT22;1652;51.318;6.202;2023-04-06T00:32:54;1.60;99.90
3281;DHT22;1652;51.318;6.202;2023-04-06T00:35:21;1.70;99.90
3281;DHT22;1652;51.318;6.202;2023-04-06T00:37:48;1.60;99.90
3281;DHT22;1652;51.318;6.202;2023-04-06T00:40:15;1.60;99.90
3281;DHT22;1652;51.318;6.202;2023-04-06T00:42:43;1.50;99.90
3281;DHT22;1652;51.318;6.202;2023-04-06T00:45:10;1.60;99.90
3281;DHT22;1652;51.318;6.202;2023-04-06T00:47:37;1.60;99.90
3281;DHT22;1652;51.318;6.202;2023-04-06T00:50:05;1.50;99.90
3281;DHT22;1652;51.318;6.202;2023-04-06T00:52:33;1.40;99.90
3281;DHT22;1652;51.318;6.202;2023-04-06T00:55:00;1.40;99.90
3281;DHT22;1652;51.318;6.202;2023-04-06T00:57:27;1.30;99.90
3281;DHT22;1652;51.318;6.202;2023-04-06T00:59:54;1.30;99.90
3281;DHT22;1652;51.318;6.202;2023-04-06T01:02:21;1.20;99.90
3281;DHT22;1652;51.318;6.202;2023-04-06T01:04:48;1.20;99.90
3281;DHT22;1652;51.318;6.202;2023-04-06T01:07:15;1.10;99.90
3281;DHT22;1652;51.318;6.202;2023-04-06T01:09:42;1.10;99.90
3281;DHT22;1652;51.318;6.202;2023-04-06T01:12:09;1.10;99.90
3281;DHT22;1652;51.318;6.202;2023-04-06T01:14:36;1.00;99.90
3281;DHT22;1652;51.318;6.202;2023-04-06T01:17:03;1.10;99.90
3281;DHT22;1652;51.318;6.202;2023-04-06T01:19:30;1.00;99.90
3281;DHT22;1652;51.318;6.202;2023-04-06T01:21:57;0.90;99.90
3281;DHT22;1652;51.318;6.202;2023-04-06T01:24:24;0.90;99.90
3281;DHT22;1652;51.318;6.202;2023-04-06T01:26:51;1.00;99.90
3281;DHT22;1652;51.318;6.202;2023-04-06T01:29:18;1.00;99.90
3281;DHT22;1652;51.318;6.202;2023-04-06T01:31:45;0.90;99.90
3281;DHT22;1652;51.318;6.202;2023-04-06T01:34:12;0.90;99.90
3281;DHT22;1652;51.318;6.202;2023-04-06T01:36:39;0.90;99.90
3281;DHT22;1652;51.318;6.202;2023-04-06T01:39:06;0.90;99.90
3281;DHT22;1652;51.318;6.202;2023-04-06T01:41:34;1.00;99.90
3281;DHT22;1652;51.318;6.202;2023-04-06T01:44:02;1.00;99.90
3281;DHT22;1652;51.318;6.202;2023-04-06T01:46:29;1.00;99.90
3281;DHT22;1652;51.318;6.202;2023-04-06T01:48:56;0.90;99.90
3281;DHT22;1652;51.318;6.202;2023-04-06T01:51:23;0.90;99.90
3281;DHT22;1652;51.318;6.202;2023-04-06T01:53:51;1.00;99.90
3281;DHT22;1652;51.318;6.202;2023-04-06T01:56:18;0.90;99.90
3281;DHT22;1652;51.318;6.202;2023-04-06T01:58:45;0.90;99.90
3281;DHT22;1652;51.318;6.202;2023-04-06T02:01:12;0.90;99.90
3281;DHT22;1652;51.318;6.202;2023-04-06T02:03:39;0.80;99.90
3281;DHT22;1652;51.318;6.202;2023-04-06T02:06:06;0.80;99.90
3281;DHT22;1652;51.318;6.202;2023-04-06T02:08:33;0.80;99.90
3281;DHT22;1652;51.318;6.202;2023-04-06T02:11:00;0.90;99.90
3281;DHT22;1652;51.318;6.202;2023-04-06T02:13:27;0.80;99.90
3281;DHT22;1652;51.318;6.202;2023-04-06T02:15:54;0.80;99.90
3281;DHT22;1652;51.318;6.202;2023-04-06T02:18:21;0.90;99.90
3281;DHT22;1652;51.318;6.202;2023-04-06T02:20:49;0.90;99.90
3281;DHT22;1652;51.318;6.202;2023-04-06T02:23:16;0.80;99.90
3281;DHT22;1652;51.318;6.202;2023-04-06T02:25:43;0.80;99.90
3281;DHT22;1652;51.318;6.202;2023-04-06T02:28:10;0.80;99.90
3281;DHT22;1652;51.318;6.202;2023-04-06T02:30:37;0.80;99.90
3281;DHT22;1652;51.318;6.202;2023-04-06T02:33:03;0.80;99.90
3281;DHT22;1652;51.318;6.202;2023-04-06T02:35:31;0.70;99.90
3281;DHT22;1652;51.318;6.202;2023-04-06T02:37:58;0.70;99.90
3281;DHT22;1652;51.318;6.202;2023-04-06T02:40:25;0.70;99.90
3281;DHT22;1652;51.318;6.202;2023-04-06T02:42:52;0.70;99.90
3281;DHT22;1652;51.318;6.202;2023-04-06T02:45:19;0.70;99.90
3281;DHT22;1652;51.318;6.202;2023-04-06T02:47:47;0.70;99.90
3281;DHT22;1652;51.318;6.202;2023-04-06T02:50:14;0.60;99.90
3281;DHT22;1652;51.318;6.202;2023-04-06T02:52:41;0.60;99.90
3281;DHT22;1652;51.318;6.202;2023-04-06T02:55:08;0.60;99.90
3281;DHT22;1652;51.318;6.202;2023-04-06T02:57:35;0.60;99.90
3281;DHT22;1652;51.318;6.202;2023-04-06T03:00:03;0.80;99.90
3281;DHT22;1652;51.318;6.202;2023-04-06T03:02:30;0.70;99.90
3281;DHT22;1652;51.318;6.202;2023-04-06T03:04:57;0.60;99.90
3281;DHT22;1652;51.318;6.202;2023-04-06T03:07:24;0.90;99.90
3281;DHT22;1652;51.318;6.202;2023-04-06T03:09:51;0.80;99.90
3281;DHT22;1652;51.318;6.202;2023-04-06T03:12:18;0.60;99.90
3281;DHT22;1652;51.318;6.202;2023-04-06T03:14:45;0.50;99.90
3281;DHT22;1652;51.318;6.202;2023-04-06T03:17:12;0.40;99.90
3281;DHT22;1652;51.318;6.202;2023-04-06T03:19:39;0.30;99.90
3281;DHT22;1652;51.318;6.202;2023-04-06T03:22:06;0.50;99.90
3281;DHT22;1652;51.318;6.202;2023-04-06T03:24:33;0.50;99.90
3281;DHT22;1652;51.318;6.202;2023-04-06T03:27:00;0.40;99.90
3281;DHT22;1652;51.318;6.202;2023-04-06T03:29:27;0.30;99.90
3281;DHT22;1652;51.318;6.202;2023-04-06T03:31:53;0.40;99.90
3281;DHT22;1652;51.318;6.202;2023-04-06T03:34:21;0.40;99.90
3281;DHT22;1652;51.318;6.202;2023-04-06T03:36:48;0.30;99.90
3281;DHT22;1652;51.318;6.202;2023-04-06T03:39:32;0.30;99.90
3281;DHT22;1652;51.318;6.202;2023-04-06T03:41:59;0.40;99.90
3281;DHT22;1652;51.318;6.202;2023-04-06T03:44:26;0.40;99.90
3281;DHT22;1652;51.318;6.202;2023-04-06T03:46:53;0.40;99.90
3281;DHT22;1652;51.318;6.202;2023-04-06T03:49:20;0.40;99.90
3281;DHT22;1652;51.318;6.202;2023-04-06T03:51:47;0.60;99.90
3281;DHT22;1652;51.318;6.202;2023-04-06T03:54:14;0.70;99.90
3281;DHT22;1652;51.318;6.202;2023-04-06T03:56:41;0.60;99.90
3281;DHT22;1652;51.318;6.202;2023-04-06T03:59:08;0.50;99.90
3281;DHT22;1652;51.318;6.202;2023-04-06T04:01:35;0.60;99.90
3281;DHT22;1652;51.318;6.202;2023-04-06T04:04:02;0.50;99.90
3281;DHT22;1652;51.318;6.202;2023-04-06T04:06:30;0.50;99.90
3281;DHT22;1652;51.318;6.202;2023-04-06T04:08:57;0.60;99.90
3281;DHT22;1652;51.318;6.202;2023-04-06T04:11:24;0.70;99.90
3281;DHT22;1652;51.318;6.202;2023-04-06T04:13:51;0.60;99.90
3281;DHT22;1652;51.318;6.202;2023-04-06T04:16:17;0.60;99.90
3281;DHT22;1652;51.318;6.202;2023-04-06T04:18:44;0.70;99.90
3281;DHT22;1652;51.318;6.202;2023-04-06T04:21:13;0.60;99.90
3281;DHT22;1652;51.318;6.202;2023-04-06T04:23:41;0.60;99.90
3281;DHT22;1652;51.318;6.202;2023-04-06T04:26:08;0.80;99.90
3281;DHT22;1652;51.318;6.202;2023-04-06T04:28:35;0.80;99.90
3281;DHT22;1652;51.318;6.202;2023-04-06T04:31:02;0.80;99.90
3281;DHT22;1652;51.318;6.202;2023-04-06T04:33:29;1.00;99.90
3281;DHT22;1652;51.318;6.202;2023-04-06T04:35:56;1.00;99.90
3281;DHT22;1652;51.318;6.202;2023-04-06T04:38:23;1.00;99.90
3281;DHT22;1652;51.318;6.202;2023-04-06T04:40:50;1.20;99.90
3281;DHT22;1652;51.318;6.202;2023-04-06T04:43:16;1.30;99.90
3281;DHT22;1652;51.318;6.202;2023-04-06T04:45:43;1.30;99.90
3281;DHT22;1652;51.318;6.202;2023-04-06T04:48:10;1.40;99.90
3281;DHT22;1652;51.318;6.202;2023-04-06T04:50:37;1.50;99.90
3281;DHT22;1652;51.318;6.202;2023-04-06T04:53:04;1.60;99.90
3281;DHT22;1652;51.318;6.202;2023-04-06T04:55:32;1.70;99.90
3281;DHT22;1652;51.318;6.202;2023-04-06T04:57:59;1.90;99.90
3281;DHT22;1652;51.318;6.202;2023-04-06T05:00:26;2.10;99.90
3281;DHT22;1652;51.318;6.202;2023-04-06T05:02:53;2.10;99.90
3281;DHT22;1652;51.318;6.202;2023-04-06T05:05:20;2.10;99.90
3281;DHT22;1652;51.318;6.202;2023-04-06T05:07:47;2.10;99.90
3281;DHT22;1652;51.318;6.202;2023-04-06T05:10:14;2.20;99.90
3281;DHT22;1652;51.318;6.202;2023-04-06T05:12:41;2.20;99.90
3281;DHT22;1652;51.318;6.202;2023-04-06T05:15:09;2.20;99.90
3281;DHT22;1652;51.318;6.202;2023-04-06T05:17:36;2.20;99.90
3281;DHT22;1652;51.318;6.202;2023-04-06T05:20:03;2.30;99.90
3281;DHT22;1652;51.318;6.202;2023-04-06T05:22:30;2.40;99.90
3281;DHT22;1652;51.318;6.202;2023-04-06T05:24:57;2.40;99.90
3281;DHT22;1652;51.318;6.202;2023-04-06T05:27:24;2.50;99.90
3281;DHT22;1652;51.318;6.202;2023-04-06T05:29:51;2.60;99.90
3281;DHT22;1652;51.318;6.202;2023-04-06T05:32:21;2.70;99.90
3281;DHT22;1652;51.318;6.202;2023-04-06T05:34:49;2.90;99.90
3281;DHT22;1652;51.318;6.202;2023-04-06T05:37:16;3.10;97.50
3281;DHT22;1652;51.318;6.202;2023-04-06T05:39:43;3.20;95.20
3281;DHT22;1652;51.318;6.202;2023-04-06T05:42:10;3.40;95.60
3281;DHT22;1652;51.318;6.202;2023-04-06T05:44:38;3.60;86.10
3281;DHT22;1652;51.318;6.202;2023-04-06T05:47:05;3.80;84.70
3281;DHT22;1652;51.318;6.202;2023-04-06T05:49:32;4.10;60.00
3281;DHT22;1652;51.318;6.202;2023-04-06T05:51:59;4.40;33.00
3281;DHT22;1652;51.318;6.202;2023-04-06T05:54:26;4.70;14.10
3281;DHT22;1652;51.318;6.202;2023-04-06T05:56:53;5.10;11.90
3281;DHT22;1652;51.318;6.202;2023-04-06T05:59:20;5.90;1.00
3281;DHT22;1652;51.318;6.202;2023-04-06T06:01:47;6.80;1.00
3281;DHT22;1652;51.318;6.202;2023-04-06T06:04:14;7.50;1.00
3281;DHT22;1652;51.318;6.202;2023-04-06T06:06:41;8.00;99.90
3281;DHT22;1652;51.318;6.202;2023-04-06T06:09:08;8.50;1.00
3281;DHT22;1652;51.318;6.202;2023-04-06T06:11:35;8.50;1.00
3281;DHT22;1652;51.318;6.202;2023-04-06T06:14:04;8.20;1.00
3281;DHT22;1652;51.318;6.202;2023-04-06T06:16:31;7.70;99.90
3281;DHT22;1652;51.318;6.202;2023-04-06T06:18:58;7.00;1.00
3281;DHT22;1652;51.318;6.202;2023-04-06T06:21:25;6.60;1.00
3281;DHT22;1652;51.318;6.202;2023-04-06T06:23:52;6.30;1.00
3281;DHT22;1652;51.318;6.202;2023-04-06T06:26:21;6.00;1.00
3281;DHT22;1652;51.318;6.202;2023-04-06T06:28:48;6.00;1.00
3281;DHT22;1652;51.318;6.202;2023-04-06T06:31:15;5.90;1.00
3281;DHT22;1652;51.318;6.202;2023-04-06T06:33:43;6.00;1.00
3281;DHT22;1652;51.318;6.202;2023-04-06T06:36:09;6.10;1.00
3281;DHT22;1652;51.318;6.202;2023-04-06T06:38:36;6.10;1.00
3281;DHT22;1652;51.318;6.202;2023-04-06T06:41:04;6.30;1.00
3281;DHT22;1652;51.318;6.202;2023-04-06T06:43:31;6.40;1.00
3281;DHT22;1652;51.318;6.202;2023-04-06T06:45:58;6.50;1.00
3281;DHT22;1652;51.318;6.202;2023-04-06T06:48:25;6.70;1.00
3281;DHT22;1652;51.318;6.202;2023-04-06T06:50:52;6.90;1.00
3281;DHT22;1652;51.318;6.202;2023-04-06T06:53:19;7.20;1.00
3281;DHT22;1652;51.318;6.202;2023-04-06T06:55:47;7.70;1.00
3281;DHT22;1652;51.318;6.202;2023-04-06T06:58:17;8.30;99.90
3281;DHT22;1652;51.318;6.202;2023-04-06T07:00:44;8.70;25.30
3281;DHT22;1652;51.318;6.202;2023-04-06T07:03:11;9.30;1.00
3281;DHT22;1652;51.318;6.202;2023-04-06T07:05:39;9.70;1.00
3281;DHT22;1652;51.318;6.202;2023-04-06T07:08:07;9.90;1.00
3281;DHT22;1652;51.318;6.202;2023-04-06T07:10:34;9.50;1.00
3281;DHT22;1652;51.318;6.202;2023-04-06T07:13:01;9.20;99.90
3281;DHT22;1652;51.318;6.202;2023-04-06T07:15:28;8.90;1.00
3281;DHT22;1652;51.318;6.202;2023-04-06T07:17:56;8.80;99.90
3281;DHT22;1652;51.318;6.202;2023-04-06T07:22:51;8.50;99.90
3281;DHT22;1652;51.318;6.202;2023-04-06T07:25:18;8.40;1.00
3281;DHT22;1652;51.318;6.202;2023-04-06T07:27:45;8.40;1.00
3281;DHT22;1652;51.318;6.202;2023-04-06T07:30:12;8.40;1.00
3281;DHT22;1652;51.318;6.202;2023-04-06T07:32:39;8.50;1.00
3281;DHT22;1652;51.318;6.202;2023-04-06T07:35:06;8.60;1.00
3281;DHT22;1652;51.318;6.202;2023-04-06T07:37:33;8.80;1.00
3281;DHT22;1652;51.318;6.202;2023-04-06T07:40:00;9.00;99.90
3281;DHT22;1652;51.318;6.202;2023-04-06T07:42:27;9.00;99.90
3281;DHT22;1652;51.318;6.202;2023-04-06T07:44:54;8.90;1.00
3281;DHT22;1652;51.318;6.202;2023-04-06T07:47:22;9.10;1.00
3281;DHT22;1652;51.318;6.202;2023-04-06T07:49:49;9.30;1.00
3281;DHT22;1652;51.318;6.202;2023-04-06T07:52:16;9.70;99.90
3281;DHT22;1652;51.318;6.202;2023-04-06T07:54:43;10.30;1.00
3281;DHT22;1652;51.318;6.202;2023-04-06T07:57:10;10.80;66.30
3281;DHT22;1652;51.318;6.202;2023-04-06T07:59:37;11.00;65.80
3281;DHT22;1652;51.318;6.202;2023-04-06T08:02:05;11.00;21.80
3281;DHT22;1652;51.318;6.202;2023-04-06T08:04:32;10.80;99.90
3281;DHT22;1652;51.318;6.202;2023-04-06T08:06:59;10.60;1.00
3281;DHT22;1652;51.318;6.202;2023-04-06T08:09:26;10.40;1.00
3281;DHT22;1652;51.318;6.202;2023-04-06T08:11:53;10.40;99.90
3281;DHT22;1652;51.318;6.202;2023-04-06T08:14:20;10.30;99.90
3281;DHT22;1652;51.318;6.202;2023-04-06T08:16:47;10.30;1.00
3281;DHT22;1652;51.318;6.202;2023-04-06T08:19:14;10.30;99.90
3281;DHT22;1652;51.318;6.202;2023-04-06T08:21:44;10.20;1.00
3281;DHT22;1652;51.318;6.202;2023-04-06T08:24:12;10.20;1.00
3281;DHT22;1652;51.318;6.202;2023-04-06T08:26:39;10.20;50.70
3281;DHT22;1652;51.318;6.202;2023-04-06T08:29:06;10.30;99.90
3281;DHT22;1652;51.318;6.202;2023-04-06T08:31:36;10.30;99.90
3281;DHT22;1652;51.318;6.202;2023-04-06T08:34:04;10.30;99.90
3281;DHT22;1652;51.318;6.202;2023-04-06T08:36:33;10.40;99.90
3281;DHT22;1652;51.318;6.202;2023-04-06T08:39:00;10.90;97.20
3281;DHT22;1652;51.318;6.202;2023-04-06T08:41:27;11.30;1.00
3281;DHT22;1652;51.318;6.202;2023-04-06T08:43:59;11.70;99.90
3281;DHT22;1652;51.318;6.202;2023-04-06T08:46:27;12.00;1.00
3281;DHT22;1652;51.318;6.202;2023-04-06T08:49:00;12.00;1.00
3281;DHT22;1652;51.318;6.202;2023-04-06T08:51:28;11.90;1.00
3281;DHT22;1652;51.318;6.202;2023-04-06T08:53:57;11.90;50.60
3281;DHT22;1652;51.318;6.202;2023-04-06T08:56:25;12.00;1.00
3281;DHT22;1652;51.318;6.202;2023-04-06T08:58:54;12.00;1.00
3281;DHT22;1652;51.318;6.202;2023-04-06T09:01:25;12.10;99.90
3281;DHT22;1652;51.318;6.202;2023-04-06T09:03:56;12.10;59.70
3281;DHT22;1652;51.318;6.202;2023-04-06T09:06:25;12.00;1.00
3281;DHT22;1652;51.318;6.202;2023-04-06T09:08:53;12.10;99.90
3281;DHT22;1652;51.318;6.202;2023-04-06T09:11:21;12.10;99.90
3281;DHT22;1652;51.318;6.202;2023-04-06T09:13:53;12.30;1.00
3281;DHT22;1652;51.318;6.202;2023-04-06T09:16:21;12.60;1.90
3281;DHT22;1652;51.318;6.202;2023-04-06T09:18:49;12.60;12.30
3281;DHT22;1652;51.318;6.202;2023-04-06T09:21:17;12.40;1.00
3281;DHT22;1652;51.318;6.202;2023-04-06T09:23:47;12.30;1.00
3281;DHT22;1652;51.318;6.202;2023-04-06T09:26:24;12.20;1.00
3281;DHT22;1652;51.318;6.202;2023-04-06T09:28:54;12.20;99.90
3281;DHT22;1652;51.318;6.202;2023-04-06T09:31:27;12.30;1.00
3281;DHT22;1652;51.318;6.202;2023-04-06T09:33:54;12.20;99.90
3281;DHT22;1652;51.318;6.202;2023-04-06T09:39:03;12.20;1.00
3281;DHT22;1652;51.318;6.202;2023-04-06T09:41:36;12.30;99.90
3281;DHT22;1652;51.318;6.202;2023-04-06T09:44:07;12.30;1.00
3281;DHT22;1652;51.318;6.202;2023-04-06T09:46:40;12.30;99.90
3281;DHT22;1652;51.318;6.202;2023-04-06T09:49:27;12.30;1.00
3281;DHT22;1652;51.318;6.202;2023-04-06T09:51:58;12.50;99.90
3281;DHT22;1652;51.318;6.202;2023-04-06T09:54:28;12.80;3.80
3281;DHT22;1652;51.318;6.202;2023-04-06T09:57:15;12.80;1.00
3281;DHT22;1652;51.318;6.202;2023-04-06T10:00:03;12.70;1.00
3281;DHT22;1652;51.318;6.202;2023-04-06T10:07:57;13.30;99.90
3281;DHT22;1652;51.318;6.202;2023-04-06T10:10:28;13.30;1.00
3281;DHT22;1652;51.318;6.202;2023-04-06T10:12:56;13.20;1.00
3281;DHT22;1652;51.318;6.202;2023-04-06T10:15:23;13.20;1.00
3281;DHT22;1652;51.318;6.202;2023-04-06T10:17:51;13.30;1.00
3281;DHT22;1652;51.318;6.202;2023-04-06T10:25:29;13.40;1.00
3281;DHT22;1652;51.318;6.202;2023-04-06T10:28:06;13.50;99.90
3281;DHT22;1652;51.318;6.202;2023-04-06T10:30:34;13.70;99.90
3281;DHT22;1652;51.318;6.202;2023-04-06T10:33:15;13.60;55.10
3281;DHT22;1652;51.318;6.202;2023-04-06T10:35:43;13.50;99.90
3281;DHT22;1652;51.318;6.202;2023-04-06T10:38:10;13.50;99.90
3281;DHT22;1652;51.318;6.202;2023-04-06T10:40:40;13.50;1.00
3281;DHT22;1652;51.318;6.202;2023-04-06T10:43:12;13.50;99.90
3281;DHT22;1652;51.318;6.202;2023-04-06T10:45:40;13.50;1.00
3281;DHT22;1652;51.318;6.202;2023-04-06T10:48:17;13.60;99.90
3281;DHT22;1652;51.318;6.202;2023-04-06T10:50:47;13.50;99.90
3281;DHT22;1652;51.318;6.202;2023-04-06T10:53:25;13.50;1.00
3281;DHT22;1652;51.318;6.202;2023-04-06T10:55:56;13.50;99.90
3281;DHT22;1652;51.318;6.202;2023-04-06T10:58:26;13.60;99.90
3281;DHT22;1652;51.318;6.202;2023-04-06T11:00:54;13.70;1.00
3281;DHT22;1652;51.318;6.202;2023-04-06T11:03:26;13.80;99.90
3281;DHT22;1652;51.318;6.202;2023-04-06T11:05:54;14.00;1.00
3281;DHT22;1652;51.318;6.202;2023-04-06T11:08:33;13.90;99.90
3281;DHT22;1652;51.318;6.202;2023-04-06T11:11:10;13.90;64.40
3281;DHT22;1652;51.318;6.202;2023-04-06T11:13:58;14.10;94.10
3281;DHT22;1652;51.318;6.202;2023-04-06T11:16:29;14.10;1.00
3281;DHT22;1652;51.318;6.202;2023-04-06T11:18:58;14.00;99.90
3281;DHT22;1652;51.318;6.202;2023-04-06T11:27:40;13.70;3.40
3281;DHT22;1652;51.318;6.202;2023-04-06T11:30:09;13.50;58.40
3281;DHT22;1652;51.318;6.202;2023-04-06T11:32:43;13.40;99.90
3281;DHT22;1652;51.318;6.202;2023-04-06T11:35:19;13.30;1.00
3281;DHT22;1652;51.318;6.202;2023-04-06T11:37:46;13.10;1.00
3281;DHT22;1652;51.318;6.202;2023-04-06T11:40:13;13.10;1.00
3281;DHT22;1652;51.318;6.202;2023-04-06T11:42:40;13.00;1.00
3281;DHT22;1652;51.318;6.202;2023-04-06T11:45:07;12.80;18.80
3281;DHT22;1652;51.318;6.202;2023-04-06T11:47:36;12.80;1.00
3281;DHT22;1652;51.318;6.202;2023-04-06T11:50:11;12.80;1.00
3281;DHT22;1652;51.318;6.202;2023-04-06T11:52:42;12.80;20.30
3281;DHT22;1652;51.318;6.202;2023-04-06T11:55:14;12.80;99.90
3281;DHT22;1652;51.318;6.202;2023-04-06T11:57:42;12.90;1.00
3281;DHT22;1652;51.318;6.202;2023-04-06T12:00:10;12.80;99.90
3281;DHT22;1652;51.318;6.202;2023-04-06T12:02:38;12.70;99.90
3281;DHT22;1652;51.318;6.202;2023-04-06T12:05:06;12.50;1.00
3281;DHT22;1652;51.318;6.202;2023-04-06T12:07:35;12.20;1.00
3281;DHT22;1652;51.318;6.202;2023-04-06T12:10:03;12.30;1.00
3281;DHT22;1652;51.318;6.202;2023-04-06T12:12:30;12.20;1.00
3281;DHT22;1652;51.318;6.202;2023-04-06T12:14:58;11.90;1.00
3281;DHT22;1652;51.318;6.202;2023-04-06T12:17:25;11.70;1.00
3281;DHT22;1652;51.318;6.202;2023-04-06T12:19:52;11.60;1.00
3281;DHT22;1652;51.318;6.202;2023-04-06T12:22:19;11.50;1.00
3281;DHT22;1652;51.318;6.202;2023-04-06T12:24:46;11.20;1.00
3281;DHT22;1652;51.318;6.202;2023-04-06T12:27:13;10.90;1.00
3281;DHT22;1652;51.318;6.202;2023-04-06T12:29:41;10.60;19.10
3281;DHT22;1652;51.318;6.202;2023-04-06T12:32:08;10.50;33.50
3281;DHT22;1652;51.318;6.202;2023-04-06T12:34:35;10.20;43.50
3281;DHT22;1652;51.318;6.202;2023-04-06T12:37:02;10.10;74.10
3281;DHT22;1652;51.318;6.202;2023-04-06T12:39:29;10.10;93.30
3281;DHT22;1652;51.318;6.202;2023-04-06T12:41:56;9.90;99.90
3281;DHT22;1652;51.318;6.202;2023-04-06T12:44:23;9.80;99.90
3281;DHT22;1652;51.318;6.202;2023-04-06T12:46:52;9.70;99.90
3281;DHT22;1652;51.318;6.202;2023-04-06T12:49:19;9.60;99.90
3281;DHT22;1652;51.318;6.202;2023-04-06T12:51:46;9.60;99.90
3281;DHT22;1652;51.318;6.202;2023-04-06T12:54:13;9.60;99.90
3281;DHT22;1652;51.318;6.202;2023-04-06T12:56:40;9.60;99.90
3281;DHT22;1652;51.318;6.202;2023-04-06T12:59:07;9.70;99.90
3281;DHT22;1652;51.318;6.202;2023-04-06T13:01:34;9.80;99.90
3281;DHT22;1652;51.318;6.202;2023-04-06T13:04:02;9.90;99.90
3281;DHT22;1652;51.318;6.202;2023-04-06T13:06:29;9.90;99.90
3281;DHT22;1652;51.318;6.202;2023-04-06T13:08:56;9.90;99.90
3281;DHT22;1652;51.318;6.202;2023-04-06T13:11:25;10.00;99.90
3281;DHT22;1652;51.318;6.202;2023-04-06T13:13:54;10.00;99.90
3281;DHT22;1652;51.318;6.202;2023-04-06T13:16:21;10.10;99.90
3281;DHT22;1652;51.318;6.202;2023-04-06T13:18:48;10.10;99.90
3281;DHT22;1652;51.318;6.202;2023-04-06T13:21:17;10.20;99.90
3281;DHT22;1652;51.318;6.202;2023-04-06T13:23:44;10.30;99.90
3281;DHT22;1652;51.318;6.202;2023-04-06T13:26:11;10.30;99.90
3281;DHT22;1652;51.318;6.202;2023-04-06T13:28:40;10.10;99.90
3281;DHT22;1652;51.318;6.202;2023-04-06T13:31:07;9.90;99.90
3281;DHT22;1652;51.318;6.202;2023-04-06T13:33:35;9.80;99.90
3281;DHT22;1652;51.318;6.202;2023-04-06T13:36:02;9.70;99.90
3281;DHT22;1652;51.318;6.202;2023-04-06T13:38:29;9.60;99.90
3281;DHT22;1652;51.318;6.202;2023-04-06T13:40:56;9.60;99.90
3281;DHT22;1652;51.318;6.202;2023-04-06T13:43:23;9.50;99.90
3281;DHT22;1652;51.318;6.202;2023-04-06T13:45:53;9.30;99.90
3281;DHT22;1652;51.318;6.202;2023-04-06T13:48:25;9.30;99.90
3281;DHT22;1652;51.318;6.202;2023-04-06T13:50:52;9.20;99.90
3281;DHT22;1652;51.318;6.202;2023-04-06T13:53:19;9.10;99.90
3281;DHT22;1652;51.318;6.202;2023-04-06T13:55:53;9.10;99.90
3281;DHT22;1652;51.318;6.202;2023-04-06T13:58:20;9.10;99.90
3281;DHT22;1652;51.318;6.202;2023-04-06T14:00:47;9.10;99.90
3281;DHT22;1652;51.318;6.202;2023-04-06T14:03:14;9.10;99.90
3281;DHT22;1652;51.318;6.202;2023-04-06T14:05:42;9.20;99.90
3281;DHT22;1652;51.318;6.202;2023-04-06T14:08:09;9.20;99.90
3281;DHT22;1652;51.318;6.202;2023-04-06T14:10:39;9.20;99.90
3281;DHT22;1652;51.318;6.202;2023-04-06T14:13:07;9.20;99.90
3281;DHT22;1652;51.318;6.202;2023-04-06T14:15:35;9.30;99.90
3281;DHT22;1652;51.318;6.202;2023-04-06T14:18:02;9.30;99.90
3281;DHT22;1652;51.318;6.202;2023-04-06T14:20:31;9.40;99.90
3281;DHT22;1652;51.318;6.202;2023-04-06T14:23:02;9.30;99.90
3281;DHT22;1652;51.318;6.202;2023-04-06T14:25:29;9.20;99.90
3281;DHT22;1652;51.318;6.202;2023-04-06T14:28:01;9.20;99.90
3281;DHT22;1652;51.318;6.202;2023-04-06T14:30:30;9.10;99.90
3281;DHT22;1652;51.318;6.202;2023-04-06T14:32:57;9.10;99.90
3281;DHT22;1652;51.318;6.202;2023-04-06T14:35:25;9.10;99.90
3281;DHT22;1652;51.318;6.202;2023-04-06T14:37:55;9.00;99.90
3281;DHT22;1652;51.318;6.202;2023-04-06T14:40:24;9.00;99.90
3281;DHT22;1652;51.318;6.202;2023-04-06T14:42:51;9.10;99.90
3281;DHT22;1652;51.318;6.202;2023-04-06T14:45:18;9.00;99.90
3281;DHT22;1652;51.318;6.202;2023-04-06T14:47:46;9.00;99.90
3281;DHT22;1652;51.318;6.202;2023-04-06T14:50:13;9.00;99.90
3281;DHT22;1652;51.318;6.202;2023-04-06T14:52:41;9.00;99.90
3281;DHT22;1652;51.318;6.202;2023-04-06T14:55:08;9.00;99.90
3281;DHT22;1652;51.318;6.202;2023-04-06T14:57:35;9.00;99.90
3281;DHT22;1652;51.318;6.202;2023-04-06T15:00:02;9.00;99.90
3281;DHT22;1652;51.318;6.202;2023-04-06T15:02:30;9.00;99.90
3281;DHT22;1652;51.318;6.202;2023-04-06T15:04:58;9.00;99.90
3281;DHT22;1652;51.318;6.202;2023-04-06T15:07:25;9.00;99.90
3281;DHT22;1652;51.318;6.202;2023-04-06T15:09:52;9.00;99.90
3281;DHT22;1652;51.318;6.202;2023-04-06T15:12:19;8.90;99.90
3281;DHT22;1652;51.318;6.202;2023-04-06T15:14:46;8.80;99.90
3281;DHT22;1652;51.318;6.202;2023-04-06T15:17:13;8.80;99.90
3281;DHT22;1652;51.318;6.202;2023-04-06T15:19:40;8.80;99.90
3281;DHT22;1652;51.318;6.202;2023-04-06T15:22:07;8.80;99.90
3281;DHT22;1652;51.318;6.202;2023-04-06T15:24:34;8.80;99.90
3281;DHT22;1652;51.318;6.202;2023-04-06T15:27:01;8.70;99.90
3281;DHT22;1652;51.318;6.202;2023-04-06T15:29:31;8.60;99.90
3281;DHT22;1652;51.318;6.202;2023-04-06T15:31:58;8.60;99.90
3281;DHT22;1652;51.318;6.202;2023-04-06T15:34:26;8.60;99.90
3281;DHT22;1652;51.318;6.202;2023-04-06T15:37:00;8.60;99.90
3281;DHT22;1652;51.318;6.202;2023-04-06T15:39:28;8.50;99.90
3281;DHT22;1652;51.318;6.202;2023-04-06T15:41:55;8.60;99.90
3281;DHT22;1652;51.318;6.202;2023-04-06T15:44:23;8.60;99.90
3281;DHT22;1652;51.318;6.202;2023-04-06T15:46:51;8.50;99.90
3281;DHT22;1652;51.318;6.202;2023-04-06T15:49:19;8.60;99.90
3281;DHT22;1652;51.318;6.202;2023-04-06T15:51:47;8.50;99.90
3281;DHT22;1652;51.318;6.202;2023-04-06T15:54:14;8.60;99.90
3281;DHT22;1652;51.318;6.202;2023-04-06T15:56:42;8.60;99.90
3281;DHT22;1652;51.318;6.202;2023-04-06T15:59:09;8.60;99.90
3281;DHT22;1652;51.318;6.202;2023-04-06T16:01:36;8.50;99.90
3281;DHT22;1652;51.318;6.202;2023-04-06T16:04:06;8.50;99.90
3281;DHT22;1652;51.318;6.202;2023-04-06T16:06:34;8.50;99.90
3281;DHT22;1652;51.318;6.202;2023-04-06T16:09:01;8.50;99.90
3281;DHT22;1652;51.318;6.202;2023-04-06T16:11:30;8.40;99.90
3281;DHT22;1652;51.318;6.202;2023-04-06T16:13:58;8.40;99.90
3281;DHT22;1652;51.318;6.202;2023-04-06T16:16:26;8.40;99.90
3281;DHT22;1652;51.318;6.202;2023-04-06T16:18:53;8.40;99.90
3281;DHT22;1652;51.318;6.202;2023-04-06T16:21:19;8.40;99.90
3281;DHT22;1652;51.318;6.202;2023-04-06T16:23:47;8.30;99.90
3281;DHT22;1652;51.318;6.202;2023-04-06T16:26:15;8.30;99.90
3281;DHT22;1652;51.318;6.202;2023-04-06T16:28:44;8.20;99.90
3281;DHT22;1652;51.318;6.202;2023-04-06T16:31:21;8.20;99.90
3281;DHT22;1652;51.318;6.202;2023-04-06T16:33:49;8.20;99.90
3281;DHT22;1652;51.318;6.202;2023-04-06T16:36:23;8.20;99.90
3281;DHT22;1652;51.318;6.202;2023-04-06T16:38:50;8.20;99.90
3281;DHT22;1652;51.318;6.202;2023-04-06T16:41:18;8.10;99.90
3281;DHT22;1652;51.318;6.202;2023-04-06T16:43:45;8.10;99.90